Bessemer, Michigan
Current Conditions -  °F | °C
As of 5:55 PM on Monday 20 Oct 2014 (Local Time) from KIWD Reporting Station
Overcast Overcast  
Wind Chill: 42°   Ceiling: 2900
Heat Index: 46°   Visibility: 10mi
Dew Point: 43°   Wind: 8mph
Humidity: 87%   Direction: 350°N
Pressure: 30"   Gusts: NA
Location:  46.48°N, 90.05°W
Report Text: KIWD 202255Z AUTO 35007KT 10SM BKN029 OVC035 08/06 A3000 RMK AO1
Loading
Personal Weather Stations






























Interactive Weather Map
Tropical Storm Tracking
New forecast layout! Learn more

10-Day Weather Forecast

Advertisements
Track Severe Weather on mobile